Main page
METAR-TAF:

METAR-TAF

Airports :

Lydd Airport

Lydd, England

latitude: 50-57N, longitude: 000-56E, elevation: 3 m

Current weather observation

The report was made 27 minutes ago, at 16:20 UTC
Wind 5 kt from the South/Southeast
Temperature 5°C
Humidity 100%
Pressure 1018 hPa
Visibility: 1800 m
Overcast at a height of 200 ft
mist

METAR: EGMD 251620Z 16005KT 1800 BR OVC002 05/05 Q1018

Time: 16:47 (16:47 UTC)

Forecast

The report was made 1 hour and 40 minutes ago, at 15:07 UTC
Forecast valid from 25 at 15 UTC to 25 at 24 UTC
Wind 7 kt from the Southeast
Visibility: 2000 m
Broken clouds at a height of 200 ft
mist
Temporary
from 25 at 15 UTC to 25 at 20 UTC
Visibility: 0400 m
Overcast at a height of 100 ft
fog
Probability 30% :
Temporary
from 25 at 20 UTC to 25 at 24 UTC
Few clouds at a height of 300 ft

TAF: EGMD 251507Z 2515/2524 14007KT 2000 BR BKN002 TEMPO 2515/2520 0400 FG OVC001 PROB30 TEMPO 2520/2524 FEW003

Weather observations and forecasts of more than 4000 airports (METAR and TAF reports).

The available stations are represented by yellow and red dots on the map.

Hover mouse over dot to see the name of the station.

Then click to see weather observations and forecasts.

To change the map : click on the green buttons with a black cross to zoom in, on the green button with a dash to zoom out, or on the green arrows for adjacent maps.


METAR-TAF: